Time;durP1;ratioP1;P1;durP2;ratioP2;P2;SDS_P1;SDS_P2;PMS_P1;PMS_P2;Temp;Humidity;BMP_temperature;BMP_pressure;BME280_temperature;BME280_humidity;BME280_pressure;Samples;Min_cycle;Max_cycle;Signal;HPM_P1;HPM_P2
2022/06/05 00:01:43;;;;;;;;;;;28.50;39.40;;;;;;5098526;28;988;-45
2022/06/05 00:04:18;;;;;;;;;;;28.50;39.50;;;;;;5098201;28;1031;-44
2022/06/05 00:06:48;;;;;;;;;;;28.60;39.60;;;;;;5098677;28;948;-45
2022/06/05 00:09:22;;;;;;;;;;;28.60;39.60;;;;;;5099544;28;932;-44
2022/06/05 00:11:53;;;;;;;;;;;28.60;39.50;;;;;;5097403;28;1039;-44
2022/06/05 00:14:20;;;;;;;;;;;28.60;39.50;;;;;;5097986;28;1281;-45
2022/06/05 00:16:46;;;;;;;;;;;28.70;39.50;;;;;;5098711;28;1898;-44
2022/06/05 00:19:13;;;;;;;;;;;28.60;39.70;;;;;;5097307;28;1039;-45
2022/06/05 00:21:40;;;;;;;;;;;28.70;39.80;;;;;;5097512;28;949;-46
2022/06/05 00:24:07;;;;;;;;;;;28.70;39.70;;;;;;5096538;28;1012;-44
2022/06/05 00:26:39;;;;;;;;;;;28.70;39.60;;;;;;5097135;28;1026;-45
2022/06/05 00:29:13;;;;;;;;;;;28.70;39.50;;;;;;5096262;28;1020;-45
2022/06/05 00:31:42;;;;;;;;;;;28.70;39.60;;;;;;5097462;28;894;-45
2022/06/05 00:34:09;;;;;;;;;;;28.70;39.50;;;;;;5096876;28;1043;-45
2022/06/05 00:36:43;;;;;;;;;;;28.80;39.60;;;;;;5097927;28;1957;-45
2022/06/05 00:39:13;;;;;;;;;;;28.60;39.70;;;;;;5097493;28;1012;-45
2022/06/05 00:41:54;;;;;;;;;;;28.70;41.00;;;;;;5097703;28;992;-45
2022/06/05 00:44:25;;;;;;;;;;;28.70;39.80;;;;;;5098028;28;948;-45
2022/06/05 00:46:53;;;;;;;;;;;28.60;40.00;;;;;;5097348;28;1082;-44
2022/06/05 00:49:20;;;;;;;;;;;28.60;40.00;;;;;;5097481;28;1007;-45
2022/06/05 00:51:47;;;;;;;;;;;28.70;39.90;;;;;;5096888;28;1103;-45
2022/06/05 00:54:14;;;;;;;;;;;28.70;39.80;;;;;;5097337;28;1166;-43
2022/06/05 00:56:41;;;;;;;;;;;28.70;40.00;;;;;;5097177;28;1902;-45
2022/06/05 00:59:11;;;;;;;;;;;28.60;40.00;;;;;;5096171;28;939;-45
2022/06/05 01:01:39;;;;;;;;;;;28.60;40.00;;;;;;5096331;28;993;-45
2022/06/05 01:04:06;;;;;;;;;;;28.60;40.00;;;;;;5095975;28;1006;-45
2022/06/05 01:06:33;;;;;;;;;;;28.60;40.20;;;;;;5096130;28;982;-44
2022/06/05 01:09:01;;;;;;;;;;;28.60;40.20;;;;;;5095265;28;2415;-45
2022/06/05 01:11:31;;;;;;;;;;;28.60;40.30;;;;;;5096323;28;972;-45
2022/06/05 01:14:03;;;;;;;;;;;28.60;40.30;;;;;;5095154;28;1447;-45
2022/06/05 01:16:32;;;;;;;;;;;28.60;40.20;;;;;;5096612;28;1972;-44
2022/06/05 01:19:10;;;;;;;;;;;28.60;40.10;;;;;;5097291;28;940;-45
2022/06/05 01:21:52;;;;;;;;;;;28.60;40.20;;;;;;5096148;28;936;-45
2022/06/05 01:24:29;;;;;;;;;;;28.60;40.00;;;;;;5092350;28;1428;-43
2022/06/05 01:27:00;;;;;;;;;;;28.70;40.30;;;;;;5095526;28;925;-44
2022/06/05 01:29:30;;;;;;;;;;;28.70;40.10;;;;;;5095124;28;983;-45
2022/06/05 01:31:59;;;;;;;;;;;28.60;40.00;;;;;;5096281;28;1000;-45
2022/06/05 01:34:30;;;;;;;;;;;28.60;40.40;;;;;;5094196;28;1002;-45
2022/06/05 01:37:01;;;;;;;;;;;28.60;40.20;;;;;;5095205;28;1906;-45
2022/06/05 01:39:30;;;;;;;;;;;28.70;40.30;;;;;;5095092;28;995;-45
2022/06/05 01:42:01;;;;;;;;;;;28.60;40.10;;;;;;5095022;28;992;-45
2022/06/05 01:44:30;;;;;;;;;;;28.70;40.20;;;;;;5094662;28;980;-44
2022/06/05 01:46:58;;;;;;;;;;;28.60;40.30;;;;;;5095280;28;984;-45
2022/06/05 01:49:28;;;;;;;;;;;28.70;40.30;;;;;;5096135;28;925;-45
2022/06/05 01:51:57;;;;;;;;;;;28.70;40.10;;;;;;5096193;28;1153;-45
2022/06/05 01:54:27;;;;;;;;;;;28.70;40.10;;;;;;5096002;28;1069;-45
2022/06/05 01:56:56;;;;;;;;;;;28.70;40.30;;;;;;5096278;28;1978;-45
2022/06/05 01:59:28;;;;;;;;;;;28.60;40.30;;;;;;5095834;28;944;-45
2022/06/05 02:01:56;;;;;;;;;;;28.60;40.50;;;;;;5095838;28;1244;-45
2022/06/05 02:04:27;;;;;;;;;;;28.60;40.40;;;;;;5095111;28;1015;-43
2022/06/05 02:06:57;;;;;;;;;;;28.60;40.60;;;;;;5096257;28;1004;-45
2022/06/05 02:09:25;;;;;;;;;;;28.60;40.50;;;;;;5096282;28;1067;-45
2022/06/05 02:11:52;;;;;;;;;;;28.60;40.60;;;;;;5095255;28;991;-45
2022/06/05 02:14:19;;;;;;;;;;;28.70;40.50;;;;;;5094660;28;1043;-45
2022/06/05 02:16:47;;;;;;;;;;;28.60;40.40;;;;;;5095702;28;1977;-45
2022/06/05 02:22:19;;;;;;;;;;;28.60;40.70;;;;;;5097060;28;989;-45
2022/06/05 02:24:46;;;;;;;;;;;28.70;40.50;;;;;;5097309;28;1044;-45
2022/06/05 02:27:13;;;;;;;;;;;28.70;40.40;;;;;;5095661;28;960;-44
2022/06/05 02:29:40;;;;;;;;;;;28.70;40.30;;;;;;5096126;28;939;-45
2022/06/05 02:32:14;;;;;;;;;;;28.70;40.20;;;;;;5096529;28;1019;-45
2022/06/05 02:34:45;;;;;;;;;;;28.70;40.40;;;;;;5096956;28;1039;-44
2022/06/05 02:37:17;;;;;;;;;;;28.70;40.30;;;;;;5094625;28;1909;-45
2022/06/05 02:39:47;;;;;;;;;;;28.80;40.30;;;;;;5094481;28;1001;-44
2022/06/05 02:42:20;;;;;;;;;;;28.70;40.30;;;;;;5096140;28;999;-44
2022/06/05 02:44:52;;;;;;;;;;;28.80;40.30;;;;;;5095381;28;1027;-44
2022/06/05 02:47:24;;;;;;;;;;;28.80;40.30;;;;;;5098934;28;1035;-45
2022/06/05 02:49:53;;;;;;;;;;;28.80;41.40;;;;;;5100121;28;943;-45
2022/06/05 02:52:20;;;;;;;;;;;28.70;40.30;;;;;;5100771;28;998;-44
2022/06/05 02:54:49;;;;;;;;;;;28.70;40.40;;;;;;5100142;28;1006;-45
2022/06/05 02:57:15;;;;;;;;;;;28.70;40.40;;;;;;5101524;28;1905;-44
2022/06/05 02:59:42;;;;;;;;;;;28.70;40.50;;;;;;5101216;28;1006;-43
2022/06/05 03:04:54;;;;;;;;;;;28.70;40.40;;;;;;5100090;28;681;-39
2022/06/05 03:07:21;;;;;;;;;;;28.70;40.40;;;;;;5101262;28;992;-35
2022/06/05 03:09:48;;;;;;;;;;;28.70;40.70;;;;;;5100740;28;948;-35
2022/06/05 03:12:15;;;;;;;;;;;28.60;40.60;;;;;;5100640;28;1020;-36
2022/06/05 03:14:42;;;;;;;;;;;28.60;40.70;;;;;;5099805;28;1033;-36
2022/06/05 03:17:08;;;;;;;;;;;28.60;40.80;;;;;;5100990;28;1902;-36
2022/06/05 03:19:35;;;;;;;;;;;28.70;40.50;;;;;;5099635;28;972;-36
2022/06/05 03:22:03;;;;;;;;;;;28.70;40.30;;;;;;5100524;28;943;-36
2022/06/05 03:24:30;;;;;;;;;;;28.70;40.40;;;;;;5100566;28;984;-36
2022/06/05 03:26:57;;;;;;;;;;;28.70;40.50;;;;;;5100827;28;994;-36
2022/06/05 03:29:23;;;;;;;;;;;28.70;40.50;;;;;;5100281;28;988;-37
2022/06/05 03:31:50;;;;;;;;;;;28.70;40.40;;;;;;5099457;28;1018;-37
2022/06/05 03:34:17;;;;;;;;;;;28.70;40.40;;;;;;5099798;28;941;-36
2022/06/05 03:36:44;;;;;;;;;;;28.70;40.50;;;;;;5099536;28;1894;-36
2022/06/05 03:39:12;;;;;;;;;;;28.70;40.40;;;;;;5099172;28;876;-36
2022/06/05 03:41:39;;;;;;;;;;;28.80;40.30;;;;;;5099554;28;990;-36
2022/06/05 03:44:06;;;;;;;;;;;28.80;40.30;;;;;;5099832;28;850;-36
2022/06/05 03:46:34;;;;;;;;;;;28.80;40.30;;;;;;5099425;28;961;-36
2022/06/05 03:49:01;;;;;;;;;;;28.70;40.50;;;;;;5099380;28;1422;-36
2022/06/05 03:51:28;;;;;;;;;;;28.70;40.50;;;;;;5099329;28;995;-36
2022/06/05 03:53:54;;;;;;;;;;;28.70;40.60;;;;;;5099169;28;1021;-36
2022/06/05 03:56:24;;;;;;;;;;;28.70;40.70;;;;;;5099496;28;998;-35
2022/06/05 03:58:52;;;;;;;;;;;28.60;40.60;;;;;;5098608;28;1910;-36
2022/06/05 04:01:20;;;;;;;;;;;28.70;40.50;;;;;;5098444;28;866;-35
2022/06/05 04:03:47;;;;;;;;;;;28.70;40.50;;;;;;5098753;28;1024;-35
2022/06/05 04:06:15;;;;;;;;;;;28.70;40.50;;;;;;5098708;28;968;-36
2022/06/05 04:08:41;;;;;;;;;;;28.70;40.50;;;;;;5099122;28;1011;-35
2022/06/05 04:11:11;;;;;;;;;;;28.70;40.50;;;;;;5098686;28;1003;-35
2022/06/05 04:13:39;;;;;;;;;;;28.70;40.50;;;;;;5098295;28;1015;-35
2022/06/05 04:16:09;;;;;;;;;;;28.80;40.50;;;;;;5098515;28;1016;-36
2022/06/05 04:18:36;;;;;;;;;;;28.70;40.50;;;;;;5098973;28;1918;-36
2022/06/05 04:21:06;;;;;;;;;;;28.70;40.50;;;;;;5099038;28;924;-35
2022/06/05 04:23:32;;;;;;;;;;;28.80;40.40;;;;;;5098854;28;932;-36
2022/06/05 04:25:59;;;;;;;;;;;28.80;40.30;;;;;;5098387;28;1847;-36
2022/06/05 04:28:25;;;;;;;;;;;28.80;40.30;;;;;;5098381;28;1002;-35
2022/06/05 04:30:53;;;;;;;;;;;28.80;40.30;;;;;;5098200;28;1012;-36
2022/06/05 04:33:20;;;;;;;;;;;28.90;40.30;;;;;;5098364;28;936;-36
2022/06/05 04:35:47;;;;;;;;;;;28.80;40.30;;;;;;5098803;28;1043;-36
2022/06/05 04:38:14;;;;;;;;;;;28.90;40.30;;;;;;5098765;28;1978;-36
2022/06/05 04:40:41;;;;;;;;;;;28.90;40.20;;;;;;5098697;28;1019;-35
2022/06/05 04:43:08;;;;;;;;;;;28.80;40.30;;;;;;5098041;28;1035;-35
2022/06/05 04:45:35;;;;;;;;;;;28.80;40.50;;;;;;5098566;28;1046;-35
2022/06/05 04:48:03;;;;;;;;;;;28.80;40.40;;;;;;5098709;28;1017;-35
2022/06/05 04:50:30;;;;;;;;;;;28.80;40.40;;;;;;5097856;28;944;-36
2022/06/05 04:52:57;;;;;;;;;;;28.80;40.40;;;;;;5097895;28;1011;-36
2022/06/05 04:55:23;;;;;;;;;;;28.80;40.30;;;;;;5098069;28;999;-36
2022/06/05 04:57:50;;;;;;;;;;;28.80;40.30;;;;;;5097664;28;1985;-35
2022/06/05 05:00:17;;;;;;;;;;;28.80;40.20;;;;;;5097807;28;976;-36
2022/06/05 05:02:44;;;;;;;;;;;28.80;40.30;;;;;;5098046;28;941;-36
2022/06/05 05:05:12;;;;;;;;;;;28.80;40.20;;;;;;5097118;28;1062;-36
2022/06/05 05:07:38;;;;;;;;;;;28.70;40.10;;;;;;5098216;28;932;-36
2022/06/05 05:10:06;;;;;;;;;;;28.70;40.20;;;;;;5097464;28;968;-36
2022/06/05 05:12:33;;;;;;;;;;;28.70;40.30;;;;;;5097195;28;977;-36
2022/06/05 05:14:59;;;;;;;;;;;28.70;40.30;;;;;;5096403;28;1251;-36
2022/06/05 05:17:26;;;;;;;;;;;28.70;40.30;;;;;;5097048;28;1986;-36
2022/06/05 05:19:53;;;;;;;;;;;28.70;40.40;;;;;;5095905;28;967;-36
2022/06/05 05:22:21;;;;;;;;;;;28.70;40.40;;;;;;5095956;28;1002;-36
2022/06/05 05:24:48;;;;;;;;;;;28.70;40.30;;;;;;5096456;28;985;-36
2022/06/05 05:27:15;;;;;;;;;;;28.70;40.30;;;;;;5095867;28;936;-36
2022/06/05 05:29:42;;;;;;;;;;;28.70;40.40;;;;;;5096553;28;968;-36
2022/06/05 05:32:09;;;;;;;;;;;28.70;40.30;;;;;;5096403;28;1121;-36
2022/06/05 05:34:36;;;;;;;;;;;28.60;40.20;;;;;;5096642;28;1024;-36
2022/06/05 05:37:03;;;;;;;;;;;28.60;40.40;;;;;;5096272;28;1910;-36
2022/06/05 05:42:16;;;;;;;;;;;28.60;40.40;;;;;;5094837;28;999;-36
2022/06/05 05:44:44;;;;;;;;;;;28.60;40.30;;;;;;5096978;28;945;-36
2022/06/05 05:47:12;;;;;;;;;;;28.60;40.30;;;;;;5094005;28;973;-36
2022/06/05 05:49:39;;;;;;;;;;;28.60;40.40;;;;;;5096734;28;1876;-36
2022/06/05 05:52:06;;;;;;;;;;;28.60;40.40;;;;;;5096860;28;1016;-36
2022/06/05 05:54:35;;;;;;;;;;;28.50;40.20;;;;;;5097576;28;832;-36
2022/06/05 05:57:02;;;;;;;;;;;28.50;40.20;;;;;;5097220;28;943;-36
2022/06/05 05:59:28;;;;;;;;;;;28.50;40.20;;;;;;5097146;28;1902;-36
2022/06/05 06:01:55;;;;;;;;;;;28.50;40.20;;;;;;5097191;28;950;-38
2022/06/05 06:04:22;;;;;;;;;;;28.60;40.20;;;;;;5095912;28;995;-36
2022/06/05 06:06:50;;;;;;;;;;;28.50;40.20;;;;;;5095807;28;958;-36
2022/06/05 06:09:17;;;;;;;;;;;28.50;40.20;;;;;;5097802;28;976;-36
2022/06/05 06:11:45;;;;;;;;;;;28.50;40.30;;;;;;5096953;28;1027;-36
2022/06/05 06:14:12;;;;;;;;;;;28.50;40.20;;;;;;5095870;28;1194;-36
2022/06/05 06:16:39;;;;;;;;;;;28.50;40.20;;;;;;5095469;28;1050;-36
2022/06/05 06:19:05;;;;;;;;;;;28.50;40.20;;;;;;5096650;28;1978;-36
2022/06/05 06:21:33;;;;;;;;;;;28.50;40.40;;;;;;5098018;28;1003;-36
2022/06/05 06:23:59;;;;;;;;;;;28.50;40.40;;;;;;5100147;28;985;-36
2022/06/05 06:26:26;;;;;;;;;;;28.40;40.40;;;;;;5100082;28;988;-37
2022/06/05 06:28:54;;;;;;;;;;;28.40;40.30;;;;;;5099606;28;1104;-36
2022/06/05 06:31:21;;;;;;;;;;;28.50;40.40;;;;;;5099368;28;1019;-36
2022/06/05 06:33:49;;;;;;;;;;;28.50;40.20;;;;;;5099589;28;1072;-36
2022/06/05 06:36:17;;;;;;;;;;;28.50;40.40;;;;;;5099489;28;928;-36
2022/06/05 06:38:44;;;;;;;;;;;28.50;40.30;;;;;;5100032;28;1973;-36
2022/06/05 06:41:12;;;;;;;;;;;28.50;40.40;;;;;;5099753;28;1020;-37
2022/06/05 06:43:39;;;;;;;;;;;28.50;40.40;;;;;;5099177;28;972;-37
2022/06/05 06:46:07;;;;;;;;;;;28.50;40.30;;;;;;5098507;28;890;-37
2022/06/05 06:48:34;;;;;;;;;;;28.50;40.30;;;;;;5100169;28;1009;-37
2022/06/05 06:51:01;;;;;;;;;;;28.50;40.30;;;;;;5099960;28;1010;-36
2022/06/05 06:53:29;;;;;;;;;;;28.50;40.40;;;;;;5099579;28;1027;-37
2022/06/05 06:55:56;;;;;;;;;;;28.50;40.40;;;;;;5099834;28;1061;-37
2022/06/05 06:58:22;;;;;;;;;;;28.50;40.40;;;;;;5098244;28;1902;-37
2022/06/05 07:00:49;;;;;;;;;;;28.50;40.30;;;;;;5100812;28;839;-37
2022/06/05 07:03:17;;;;;;;;;;;28.50;40.40;;;;;;5097494;28;980;-37
2022/06/05 07:05:44;;;;;;;;;;;28.50;40.40;;;;;;5097887;28;1043;-37
2022/06/05 07:08:11;;;;;;;;;;;28.50;40.40;;;;;;5097914;28;1019;-37
2022/06/05 07:10:38;;;;;;;;;;;28.50;40.40;;;;;;5097902;28;1007;-37
2022/06/05 07:13:05;;;;;;;;;;;28.50;40.50;;;;;;5096794;28;1346;-36
2022/06/05 07:15:35;;;;;;;;;;;28.50;40.40;;;;;;5078440;28;987;-37
2022/06/05 07:18:01;;;;;;;;;;;28.50;40.50;;;;;;5075493;28;1906;-37
2022/06/05 07:20:31;;;;;;;;;;;28.50;40.50;;;;;;5078280;28;881;-37
2022/06/05 07:22:58;;;;;;;;;;;28.50;40.30;;;;;;5095888;28;980;-34
2022/06/05 07:25:25;;;;;;;;;;;28.50;40.40;;;;;;5095982;28;877;-34
2022/06/05 07:27:51;;;;;;;;;;;28.50;40.40;;;;;;5096121;28;976;-34
2022/06/05 07:30:18;;;;;;;;;;;28.50;40.30;;;;;;5096466;28;988;-34
2022/06/05 07:32:47;;;;;;;;;;;28.50;40.40;;;;;;5095110;28;1007;-34
2022/06/05 07:35:13;;;;;;;;;;;28.50;40.50;;;;;;5096108;28;980;-34
2022/06/05 07:37:42;;;;;;;;;;;28.60;40.50;;;;;;5097611;28;1897;-34
2022/06/05 07:40:09;;;;;;;;;;;28.50;40.50;;;;;;5097624;28;1007;-34
2022/06/05 07:42:37;;;;;;;;;;;28.50;40.40;;;;;;5097637;28;972;-34
2022/06/05 07:45:03;;;;;;;;;;;28.60;40.40;;;;;;5097593;28;1011;-34
2022/06/05 07:47:30;;;;;;;;;;;28.60;40.40;;;;;;5098379;28;1127;-34
2022/06/05 07:49:57;;;;;;;;;;;28.60;40.40;;;;;;5097692;28;992;-34
2022/06/05 07:55:10;;;;;;;;;;;28.50;40.50;;;;;;5097259;28;617;-34
2022/06/05 07:57:37;;;;;;;;;;;28.50;40.60;;;;;;5097688;28;1094;-35
2022/06/05 08:00:07;;;;;;;;;;;28.50;40.60;;;;;;5098159;28;1973;-36
2022/06/05 08:02:34;;;;;;;;;;;28.50;40.60;;;;;;5097774;28;999;-34
2022/06/05 08:05:03;;;;;;;;;;;28.60;40.50;;;;;;5097783;28;940;-34
2022/06/05 08:07:31;;;;;;;;;;;28.50;40.50;;;;;;5097473;28;995;-34
2022/06/05 08:09:58;;;;;;;;;;;28.60;40.60;;;;;;5096658;28;944;-34
2022/06/05 08:12:28;;;;;;;;;;;28.60;40.60;;;;;;5094819;28;988;-34
2022/06/05 08:14:55;;;;;;;;;;;28.50;40.60;;;;;;5095671;28;1174;-34
2022/06/05 08:17:23;;;;;;;;;;;28.40;40.90;;;;;;5095567;28;998;-37
2022/06/05 08:19:50;;;;;;;;;;;28.50;40.70;;;;;;5094539;28;1984;-34
2022/06/05 08:22:18;;;;;;;;;;;28.50;40.70;;;;;;5095645;28;924;-34
2022/06/05 08:24:45;;;;;;;;;;;28.60;40.90;;;;;;5095017;28;971;-37
2022/06/05 08:27:13;;;;;;;;;;;28.60;40.70;;;;;;5094653;28;1069;-34
2022/06/05 08:29:41;;;;;;;;;;;28.60;40.90;;;;;;5094903;28;1018;-35
2022/06/05 08:32:09;;;;;;;;;;;28.60;41.10;;;;;;5094949;28;937;-34
2022/06/05 08:34:36;;;;;;;;;;;28.50;41.20;;;;;;5095342;28;939;-34
2022/06/05 08:42:36;;;;;;;;;;;28.40;42.50;;;;;;5095445;28;907;-36
2022/06/05 08:45:09;;;;;;;;;;;28.30;42.90;;;;;;5095729;28;947;-37
2022/06/05 08:47:37;;;;;;;;;;;28.30;43.10;;;;;;5094906;28;951;-37
2022/06/05 08:50:09;;;;;;;;;;;28.30;43.20;;;;;;5095026;28;865;-37
2022/06/05 08:52:39;;;;;;;;;;;28.20;43.40;;;;;;5095413;28;1005;-36
2022/06/05 08:55:10;;;;;;;;;;;28.20;43.70;;;;;;5095583;28;968;-36
2022/06/05 08:57:40;;;;;;;;;;;28.20;43.90;;;;;;5095515;28;1585;-36
2022/06/05 09:00:14;;;;;;;;;;;28.20;43.90;;;;;;5096245;28;1964;-36
2022/06/05 09:02:46;;;;;;;;;;;28.20;44.10;;;;;;5096331;28;912;-36
2022/06/05 09:05:17;;;;;;;;;;;28.10;44.10;;;;;;5095072;28;1061;-36
2022/06/05 09:07:45;;;;;;;;;;;28.20;44.10;;;;;;5095821;28;1026;-37
2022/06/05 09:10:15;;;;;;;;;;;28.10;44.30;;;;;;5095229;28;1026;-38
2022/06/05 09:12:45;;;;;;;;;;;28.10;44.40;;;;;;5095099;28;940;-36
2022/06/05 09:15:16;;;;;;;;;;;28.10;44.50;;;;;;5095073;28;1502;-36
2022/06/05 09:17:47;;;;;;;;;;;28.00;44.70;;;;;;5096510;28;1146;-36
2022/06/05 09:20:14;;;;;;;;;;;28.00;44.70;;;;;;5095564;28;1902;-36
2022/06/05 09:22:48;;;;;;;;;;;28.00;44.80;;;;;;5095051;28;956;-37
2022/06/05 09:25:24;;;;;;;;;;;28.00;44.90;;;;;;5094947;28;972;-37
2022/06/05 09:28:04;;;;;;;;;;;28.00;45.10;;;;;;5093892;28;1035;-36
2022/06/05 09:30:35;;;;;;;;;;;28.00;45.60;;;;;;5093638;28;915;-37
2022/06/05 09:33:09;;;;;;;;;;;28.10;46.00;;;;;;5094288;28;952;-37
2022/06/05 09:35:37;;;;;;;;;;;28.10;47.30;;;;;;5094569;28;1062;-37
2022/06/05 09:38:07;;;;;;;;;;;28.10;46.30;;;;;;5094668;28;981;-37
2022/06/05 09:40:36;;;;;;;;;;;28.10;46.50;;;;;;5094510;28;1914;-37
2022/06/05 09:43:20;;;;;;;;;;;28.00;46.90;;;;;;5094623;28;967;-37
2022/06/05 09:45:56;;;;;;;;;;;28.00;46.90;;;;;;5094126;28;1589;-37
2022/06/05 09:48:27;;;;;;;;;;;28.10;47.20;;;;;;5094184;28;1024;-37
2022/06/05 09:50:54;;;;;;;;;;;28.10;46.90;;;;;;5094531;28;1051;-37
2022/06/05 09:53:24;;;;;;;;;;;28.20;47.10;;;;;;5093305;28;980;-37
2022/06/05 09:55:55;;;;;;;;;;;28.30;47.00;;;;;;5094838;28;1007;-37
2022/06/05 09:58:34;;;;;;;;;;;28.30;46.90;;;;;;5097817;28;1906;-35
2022/06/05 10:01:19;;;;;;;;;;;28.40;46.80;;;;;;5098288;28;999;-38
2022/06/05 10:03:47;;;;;;;;;;;28.40;46.70;;;;;;5097340;28;1022;-36
2022/06/05 10:06:18;;;;;;;;;;;28.40;46.60;;;;;;5098432;28;2087;-38
2022/06/05 10:08:46;;;;;;;;;;;28.50;46.60;;;;;;5098770;28;973;-37
2022/06/05 10:11:21;;;;;;;;;;;28.50;46.60;;;;;;5098247;28;1023;-38
2022/06/05 10:13:50;;;;;;;;;;;28.50;46.80;;;;;;5097898;28;1537;-37
2022/06/05 10:16:24;;;;;;;;;;;28.50;46.70;;;;;;5096755;28;924;-40
2022/06/05 10:18:53;;;;;;;;;;;28.60;47.20;;;;;;5096028;28;1914;-38
2022/06/05 10:21:22;;;;;;;;;;;28.60;46.70;;;;;;5097316;28;972;-38
2022/06/05 10:23:51;;;;;;;;;;;28.70;46.70;;;;;;5096757;28;978;-37
2022/06/05 10:26:20;;;;;;;;;;;28.70;46.60;;;;;;5096994;28;984;-37
2022/06/05 10:28:47;;;;;;;;;;;28.60;47.20;;;;;;5095754;28;1042;-37
2022/06/05 10:31:23;;;;;;;;;;;28.50;47.40;;;;;;5095746;28;936;-37
2022/06/05 10:33:54;;;;;;;;;;;28.60;47.70;;;;;;5095771;28;952;-37
2022/06/05 10:36:22;;;;;;;;;;;28.60;47.80;;;;;;5096641;28;928;-36
2022/06/05 10:38:55;;;;;;;;;;;28.60;47.60;;;;;;5097075;28;1906;-37
2022/06/05 10:41:25;;;;;;;;;;;28.60;47.90;;;;;;5096398;28;1010;-37
2022/06/05 10:44:05;;;;;;;;;;;28.60;47.50;;;;;;5095825;28;1009;-36
2022/06/05 10:46:33;;;;;;;;;;;28.60;47.50;;;;;;5094514;28;959;-36
2022/06/05 10:49:04;;;;;;;;;;;28.60;47.30;;;;;;5095353;28;984;-37
2022/06/05 10:51:33;;;;;;;;;;;28.60;47.40;;;;;;5094939;28;982;-37
2022/06/05 10:54:07;;;;;;;;;;;28.60;47.20;;;;;;5095176;28;1024;-37
2022/06/05 10:56:37;;;;;;;;;;;28.60;47.30;;;;;;5097166;28;1126;-36
2022/06/05 10:59:13;;;;;;;;;;;28.60;47.10;;;;;;5095776;28;1910;-35
2022/06/05 11:01:58;;;;;;;;;;;28.70;46.90;;;;;;5096624;28;956;-35
2022/06/05 11:04:34;;;;;;;;;;;28.70;46.90;;;;;;5095435;28;1147;-35
2022/06/05 11:07:04;;;;;;;;;;;28.70;47.10;;;;;;5095879;28;940;-35
2022/06/05 11:09:38;;;;;;;;;;;28.70;47.20;;;;;;5095708;28;1007;-34
2022/06/05 11:15:03;;;;;;;;;;;28.70;47.70;;;;;;5095216;28;1030;-35
2022/06/05 11:17:33;;;;;;;;;;;28.70;47.30;;;;;;5097171;28;1057;-35
2022/06/05 11:20:05;;;;;;;;;;;28.70;47.70;;;;;;5094871;28;1898;-35
2022/06/05 11:22:32;;;;;;;;;;;28.70;48.10;;;;;;5095782;28;998;-35
2022/06/05 11:25:10;;;;;;;;;;;28.70;47.90;;;;;;5095370;28;1012;-34
2022/06/05 11:27:42;;;;;;;;;;;28.70;48.40;;;;;;5095828;28;996;-35
2022/06/05 11:30:15;;;;;;;;;;;28.70;48.20;;;;;;5096622;28;968;-35
2022/06/05 11:32:46;;;;;;;;;;;28.70;48.00;;;;;;5095864;28;1012;-34
2022/06/05 11:35:18;;;;;;;;;;;28.70;48.60;;;;;;5095998;28;984;-35
2022/06/05 11:37:54;;;;;;;;;;;28.80;48.40;;;;;;5096387;28;963;-35
2022/06/05 11:40:27;;;;;;;;;;;28.80;49.60;;;;;;5096554;28;1910;-36
2022/06/05 11:43:00;;;;;;;;;;;28.90;48.60;;;;;;5096394;28;1838;-37
2022/06/05 11:45:38;;;;;;;;;;;28.70;49.30;;;;;;5095781;28;960;-37
2022/06/05 11:48:09;;;;;;;;;;;28.60;49.40;;;;;;5095749;28;1003;-38
2022/06/05 11:50:40;;;;;;;;;;;28.80;48.80;;;;;;5095501;28;976;-37
2022/06/05 11:53:12;;;;;;;;;;;29.00;48.40;;;;;;5097007;28;1018;-37
2022/06/05 11:55:41;;;;;;;;;;;28.90;47.80;;;;;;5094860;28;1046;-38
2022/06/05 11:58:10;;;;;;;;;;;29.00;47.80;;;;;;5095489;28;996;-37
2022/06/05 12:00:38;;;;;;;;;;;28.80;48.30;;;;;;5095488;28;1976;-37
2022/06/05 12:03:10;;;;;;;;;;;29.00;48.40;;;;;;5095903;28;999;-38
2022/06/05 12:05:42;;;;;;;;;;;28.90;48.20;;;;;;5095509;28;976;-38
2022/06/05 12:08:10;;;;;;;;;;;28.90;48.20;;;;;;5094518;28;1568;-37
2022/06/05 12:10:40;;;;;;;;;;;29.00;47.80;;;;;;5096087;28;964;-37
2022/06/05 12:13:16;;;;;;;;;;;29.00;47.90;;;;;;5095985;28;1145;-37
2022/06/05 12:15:50;;;;;;;;;;;29.00;47.90;;;;;;5095649;28;976;-37
2022/06/05 12:18:21;;;;;;;;;;;29.10;47.70;;;;;;5096427;28;1008;-37
2022/06/05 12:20:51;;;;;;;;;;;29.10;47.40;;;;;;5094626;28;1993;-37
2022/06/05 12:23:19;;;;;;;;;;;29.10;47.70;;;;;;5096391;28;988;-36
2022/06/05 12:25:51;;;;;;;;;;;29.10;47.50;;;;;;5096403;28;864;-36
2022/06/05 12:28:19;;;;;;;;;;;29.10;47.20;;;;;;5096632;28;1072;-36
2022/06/05 12:30:50;;;;;;;;;;;29.10;47.20;;;;;;5096510;28;1011;-36
2022/06/05 12:33:19;;;;;;;;;;;29.10;47.30;;;;;;5096031;28;995;-36
2022/06/05 12:35:49;;;;;;;;;;;29.10;47.10;;;;;;5096812;28;854;-34
2022/06/05 12:38:21;;;;;;;;;;;28.90;47.80;;;;;;5095186;28;895;-42
2022/06/05 12:40:52;;;;;;;;;;;28.90;47.30;;;;;;5094314;28;1985;-43
2022/06/05 12:43:22;;;;;;;;;;;29.00;47.10;;;;;;5094200;28;997;-43
2022/06/05 12:45:54;;;;;;;;;;;29.00;46.90;;;;;;5095466;28;865;-42
2022/06/05 12:48:22;;;;;;;;;;;29.00;47.10;;;;;;5094742;28;992;-43
2022/06/05 12:50:52;;;;;;;;;;;29.00;46.90;;;;;;5095601;28;2221;-42
2022/06/05 12:53:33;;;;;;;;;;;28.90;46.90;;;;;;5096189;28;1007;-42
2022/06/05 12:56:07;;;;;;;;;;;28.90;47.00;;;;;;5095982;28;944;-41
2022/06/05 12:58:38;;;;;;;;;;;28.90;47.00;;;;;;5095501;28;976;-41
2022/06/05 13:01:08;;;;;;;;;;;28.90;46.90;;;;;;5095923;28;1963;-40
2022/06/05 13:03:39;;;;;;;;;;;28.90;46.90;;;;;;5095008;28;1005;-41
2022/06/05 13:06:09;;;;;;;;;;;28.90;47.00;;;;;;5096281;28;1007;-42
2022/06/05 13:08:38;;;;;;;;;;;28.80;46.80;;;;;;5094396;28;992;-42
2022/06/05 13:11:08;;;;;;;;;;;28.90;46.90;;;;;;5094080;28;995;-43
2022/06/05 13:13:40;;;;;;;;;;;28.90;46.90;;;;;;5092834;28;1057;-40
2022/06/05 13:16:08;;;;;;;;;;;28.80;47.00;;;;;;5092195;28;968;-41
2022/06/05 13:18:38;;;;;;;;;;;28.80;47.20;;;;;;5093348;28;1019;-41
2022/06/05 13:21:17;;;;;;;;;;;28.80;47.50;;;;;;5094227;28;1898;-41
2022/06/05 13:23:46;;;;;;;;;;;28.80;47.60;;;;;;5094089;28;921;-40
2022/06/05 13:26:16;;;;;;;;;;;28.80;47.80;;;;;;5092999;28;838;-41
2022/06/05 13:28:48;;;;;;;;;;;28.80;48.00;;;;;;5094314;28;917;-34
2022/06/05 13:31:21;;;;;;;;;;;28.80;48.60;;;;;;5091943;28;976;-38
2022/06/05 13:33:49;;;;;;;;;;;28.80;48.50;;;;;;5093470;28;1004;-40
2022/06/05 13:36:22;;;;;;;;;;;28.80;48.20;;;;;;5093287;28;1051;-40
2022/06/05 13:38:53;;;;;;;;;;;28.80;48.20;;;;;;5094277;28;1019;-38
2022/06/05 13:41:23;;;;;;;;;;;28.70;48.20;;;;;;5094686;28;1922;-38
2022/06/05 13:43:50;;;;;;;;;;;28.80;48.40;;;;;;5095573;28;1258;-39
2022/06/05 13:46:21;;;;;;;;;;;28.80;48.20;;;;;;5095671;28;1504;-39
2022/06/05 13:48:51;;;;;;;;;;;28.70;48.20;;;;;;5093313;28;1465;-39
2022/06/05 13:51:22;;;;;;;;;;;28.70;48.50;;;;;;5094314;28;876;-38
2022/06/05 13:53:54;;;;;;;;;;;28.70;48.50;;;;;;5094070;28;1775;-38
2022/06/05 13:56:28;;;;;;;;;;;28.70;48.90;;;;;;5093890;28;991;-38
2022/06/05 13:58:59;;;;;;;;;;;28.70;48.80;;;;;;5093430;28;990;-39
2022/06/05 14:01:31;;;;;;;;;;;28.70;49.00;;;;;;5093180;28;1975;-39
2022/06/05 14:03:58;;;;;;;;;;;28.70;49.30;;;;;;5093226;28;940;-39
2022/06/05 14:06:28;;;;;;;;;;;28.70;49.40;;;;;;5093882;28;1382;-38
2022/06/05 14:08:56;;;;;;;;;;;28.70;49.20;;;;;;5093884;28;991;-38
2022/06/05 14:11:31;;;;;;;;;;;28.80;49.30;;;;;;5093016;28;1019;-39
2022/06/05 14:13:58;;;;;;;;;;;28.80;49.70;;;;;;5092994;28;1154;-38
2022/06/05 14:16:28;;;;;;;;;;;28.70;50.20;;;;;;5093213;28;984;-39
2022/06/05 14:19:00;;;;;;;;;;;28.70;50.50;;;;;;5093275;28;1001;-38
2022/06/05 14:21:28;;;;;;;;;;;28.70;50.20;;;;;;5093489;28;1910;-39
2022/06/05 14:23:55;;;;;;;;;;;28.70;50.30;;;;;;5093634;28;1086;-39
2022/06/05 14:26:39;;;;;;;;;;;28.70;50.00;;;;;;5093251;28;943;-40
2022/06/05 14:29:07;;;;;;;;;;;28.70;50.00;;;;;;5093023;28;984;-39
2022/06/05 14:31:35;;;;;;;;;;;28.70;49.70;;;;;;5093288;28;1019;-39
2022/06/05 14:34:03;;;;;;;;;;;28.70;49.70;;;;;;5092660;28;1020;-40
2022/06/05 14:36:34;;;;;;;;;;;28.70;49.70;;;;;;5093735;28;1113;-39
2022/06/05 14:39:04;;;;;;;;;;;28.70;50.40;;;;;;5093094;28;975;-39
2022/06/05 14:41:34;;;;;;;;;;;28.70;51.10;;;;;;5091974;28;1901;-39
2022/06/05 14:44:03;;;;;;;;;;;28.70;50.80;;;;;;5095900;28;944;-39
2022/06/05 14:46:35;;;;;;;;;;;28.60;50.70;;;;;;5096711;28;1007;-39
2022/06/05 14:49:06;;;;;;;;;;;28.60;50.70;;;;;;5096285;28;968;-38
2022/06/05 14:51:37;;;;;;;;;;;28.70;50.10;;;;;;5094967;28;1004;-38
2022/06/05 14:54:11;;;;;;;;;;;28.60;50.30;;;;;;5096201;28;996;-38
2022/06/05 14:59:36;;;;;;;;;;;28.80;49.80;;;;;;5094919;28;663;-38
2022/06/05 15:02:05;;;;;;;;;;;28.80;49.40;;;;;;5095144;28;1902;-38
2022/06/05 15:04:36;;;;;;;;;;;28.80;49.40;;;;;;5094533;28;996;-38
2022/06/05 15:07:05;;;;;;;;;;;28.90;49.90;;;;;;5095920;28;1992;-38
2022/06/05 15:09:37;;;;;;;;;;;28.90;49.40;;;;;;5096504;28;904;-38
2022/06/05 15:12:06;;;;;;;;;;;28.80;50.00;;;;;;5094610;28;944;-38